createdAt,value
2019-05-20T00:00:58.683Z,1.67
2019-05-20T00:05:00.819Z,1.60
2019-05-20T00:09:02.848Z,1.40
2019-05-20T00:13:06.134Z,1.87
2019-05-20T00:17:08.133Z,1.20
2019-05-20T00:21:10.445Z,1.87
2019-05-20T00:25:12.600Z,1.77
2019-05-20T00:29:14.519Z,1.60
2019-05-20T00:33:16.699Z,1.83
2019-05-20T00:37:18.913Z,1.60
2019-05-20T00:41:20.757Z,1.60
2019-05-20T00:45:22.565Z,1.70
2019-05-20T00:49:24.585Z,1.90
2019-05-20T00:53:26.586Z,2.03
2019-05-20T00:57:28.401Z,1.70
2019-05-20T01:01:30.177Z,1.80
2019-05-20T01:05:31.970Z,1.90
2019-05-20T01:09:33.719Z,1.67
2019-05-20T01:13:35.656Z,2.20
2019-05-20T01:17:37.395Z,1.90
2019-05-20T01:21:39.215Z,1.83
2019-05-20T01:25:40.954Z,2.03
2019-05-20T01:29:42.724Z,2.50
2019-05-20T01:33:44.484Z,2.20
2019-05-20T01:37:47.421Z,2.23
2019-05-20T01:41:49.206Z,2.43
2019-05-20T01:45:50.982Z,2.27
2019-05-20T01:49:52.749Z,2.40
2019-05-20T01:53:54.552Z,2.40
2019-05-20T01:57:56.304Z,2.73
2019-05-20T02:01:58.090Z,2.80
2019-05-20T02:06:02.008Z,2.67
2019-05-20T02:10:04.480Z,2.17
2019-05-20T02:14:10.185Z,2.93
2019-05-20T02:18:12.081Z,2.67
2019-05-20T02:22:13.877Z,2.90
2019-05-20T02:26:15.958Z,2.70
2019-05-20T02:30:17.796Z,3.00
2019-05-20T02:34:19.657Z,3.10
2019-05-20T02:38:21.648Z,3.30
2019-05-20T02:42:23.845Z,3.43
2019-05-20T02:46:26.878Z,3.23
2019-05-20T02:50:29.658Z,2.90
2019-05-20T02:54:31.421Z,3.37
2019-05-20T02:58:33.213Z,3.40
2019-05-20T03:02:35.090Z,3.10
2019-05-20T03:06:37.225Z,3.43
2019-05-20T03:10:39.242Z,4.00
2019-05-20T03:14:41.218Z,2.90
2019-05-20T03:18:43.332Z,3.20
2019-05-20T03:22:45.253Z,3.87
2019-05-20T03:26:47.362Z,3.60
2019-05-20T03:30:49.194Z,3.47
2019-05-20T03:34:59.246Z,3.70
2019-05-20T03:38:54.951Z,3.47
2019-05-20T03:42:57.157Z,3.70
2019-05-20T03:46:58.953Z,3.60
2019-05-20T03:51:00.776Z,3.67
2019-05-20T03:55:02.911Z,3.70
2019-05-20T03:59:04.992Z,3.67
2019-05-20T04:03:07.049Z,3.77
2019-05-20T04:07:08.928Z,3.50
2019-05-20T04:11:10.715Z,3.90
2019-05-20T04:15:12.470Z,3.73
2019-05-20T04:19:14.525Z,3.87
2019-05-20T04:23:16.281Z,4.00
2019-05-20T04:27:18.058Z,3.70
2019-05-20T04:31:22.670Z,3.80
2019-05-20T04:35:26.938Z,3.60
2019-05-20T04:39:30.346Z,3.70
2019-05-20T04:43:35.636Z,3.70
2019-05-20T04:47:41.592Z,4.30
2019-05-20T04:51:43.378Z,3.40
2019-05-20T04:55:46.878Z,3.40
2019-05-20T04:59:48.665Z,3.23
2019-05-20T05:03:50.547Z,3.27
2019-05-20T05:07:52.365Z,3.87
2019-05-20T05:11:54.138Z,3.50
2019-05-20T05:15:56.240Z,3.30
2019-05-20T05:19:57.966Z,3.47
2019-05-20T05:23:59.825Z,3.37
2019-05-20T05:28:01.577Z,3.10
2019-05-20T05:32:03.391Z,3.97
2019-05-20T05:36:05.298Z,3.03
2019-05-20T05:40:08.280Z,3.20
2019-05-20T05:44:10.294Z,3.20
2019-05-20T05:48:12.822Z,3.10
2019-05-20T05:52:16.563Z,2.97
2019-05-20T05:56:19.209Z,3.03
2019-05-20T06:00:21.295Z,3.30
2019-05-20T06:04:23.069Z,2.93
2019-05-20T06:08:24.814Z,2.53
2019-05-20T06:12:26.909Z,3.43
2019-05-20T06:16:36.416Z,2.80
2019-05-20T06:20:32.553Z,3.20
2019-05-20T06:24:34.331Z,2.33
2019-05-20T06:28:37.308Z,2.70
2019-05-20T06:32:39.273Z,2.90
2019-05-20T06:36:44.734Z,2.70
2019-05-20T06:40:46.831Z,2.50
2019-05-20T06:44:52.929Z,2.37
2019-05-20T06:48:52.118Z,3.00
2019-05-20T06:52:53.989Z,2.53
2019-05-20T06:56:55.969Z,2.70
2019-05-20T07:00:57.832Z,2.60
2019-05-20T07:04:59.591Z,2.67
2019-05-20T07:09:01.427Z,2.50
2019-05-20T07:13:04.945Z,3.07
2019-05-20T07:17:06.768Z,2.50
2019-05-20T07:21:08.544Z,2.17
2019-05-20T07:25:10.878Z,3.20
2019-05-20T07:29:12.657Z,2.10
2019-05-20T07:33:14.754Z,2.67
2019-05-20T07:37:16.790Z,2.30
2019-05-20T07:41:18.842Z,3.10
2019-05-20T07:45:20.836Z,2.70
2019-05-20T07:49:23.677Z,2.03
2019-05-20T07:53:26.321Z,2.20
2019-05-20T07:57:31.598Z,2.53
2019-05-20T08:01:33.738Z,2.27
2019-05-20T08:05:35.529Z,2.10
2019-05-20T08:09:45.249Z,2.37
2019-05-20T08:13:41.160Z,2.30
2019-05-20T08:17:42.942Z,2.17
2019-05-20T08:21:44.850Z,2.13
2019-05-20T08:25:46.866Z,2.60
2019-05-20T08:29:48.677Z,2.10
2019-05-20T08:33:50.728Z,2.30
2019-05-20T08:37:52.802Z,2.50
2019-05-20T08:41:54.771Z,2.27
2019-05-20T08:45:56.736Z,1.97
2019-05-20T08:49:58.735Z,1.83
2019-05-20T08:54:00.625Z,2.30
2019-05-20T08:58:02.378Z,2.43
2019-05-20T09:02:04.209Z,2.90
2019-05-20T09:06:06.000Z,2.20
2019-05-20T09:10:07.944Z,2.10
2019-05-20T09:14:09.710Z,2.50
2019-05-20T09:18:11.543Z,1.98
2019-05-20T09:22:13.292Z,1.90
2019-05-20T09:26:15.086Z,2.10
2019-05-20T09:30:17.038Z,2.20
2019-05-20T09:34:18.933Z,2.27
2019-05-20T09:38:21.539Z,2.10
2019-05-20T09:42:23.542Z,2.12
2019-05-20T09:46:25.477Z,2.20
2019-05-20T09:50:27.293Z,2.27
2019-05-20T09:54:29.168Z,2.30
2019-05-20T09:58:31.597Z,2.70
2019-05-20T10:02:38.018Z,2.22
2019-05-20T10:06:37.333Z,2.40
2019-05-20T10:10:39.289Z,2.42
2019-05-20T10:14:41.185Z,2.12
2019-05-20T10:18:43.142Z,2.30
2019-05-20T10:22:45.153Z,2.27
2019-05-20T10:26:47.176Z,2.02
2019-05-20T10:30:48.985Z,2.12
2019-05-20T10:34:50.801Z,2.27
2019-05-20T10:38:58.395Z,2.60
2019-05-20T10:42:56.203Z,2.50
2019-05-20T10:46:58.011Z,2.58
2019-05-20T10:50:59.760Z,2.10
2019-05-20T10:55:01.890Z,2.70
2019-05-20T10:59:03.795Z,2.40
2019-05-20T11:03:05.623Z,2.40
2019-05-20T11:07:07.534Z,2.55
2019-05-20T11:11:13.862Z,2.20
2019-05-20T11:15:13.117Z,2.37
2019-05-20T11:19:15.018Z,2.87
2019-05-20T11:23:16.793Z,2.23
2019-05-20T11:27:18.669Z,2.52
2019-05-20T11:31:21.466Z,2.53
2019-05-20T11:35:23.269Z,2.30
2019-05-20T11:39:33.261Z,2.83
2019-05-20T11:43:28.966Z,2.47
2019-05-20T11:47:30.699Z,3.30
2019-05-20T11:51:32.525Z,2.27
2019-05-20T11:55:35.317Z,2.80
2019-05-20T11:59:37.119Z,2.60
2019-05-20T12:03:39.982Z,2.98
2019-05-20T12:07:41.925Z,2.62
2019-05-20T12:11:43.678Z,2.83
2019-05-20T12:15:45.475Z,2.62
2019-05-20T12:19:47.198Z,3.00
2019-05-20T12:23:49.004Z,2.40
2019-05-20T12:27:50.836Z,2.70
2019-05-20T12:31:53.015Z,3.00
2019-05-20T12:36:07.791Z,2.98
2019-05-20T12:40:27.538Z,3.00
2019-05-20T12:44:29.355Z,3.10
2019-05-20T12:48:32.469Z,2.70
2019-05-20T12:52:35.769Z,2.80
2019-05-20T12:56:37.803Z,2.77
2019-05-20T13:00:39.814Z,2.87
2019-05-20T13:04:41.756Z,2.72
2019-05-20T13:08:43.617Z,2.57
2019-05-20T13:12:48.463Z,3.00
2019-05-20T13:16:50.287Z,3.00
2019-05-20T13:20:52.105Z,2.63
2019-05-20T13:24:53.871Z,2.67
2019-05-20T13:28:59.288Z,2.80
2019-05-20T13:32:59.304Z,3.23
2019-05-20T13:37:01.339Z,2.70
2019-05-20T13:41:03.090Z,2.57
2019-05-20T13:45:05.097Z,2.80
2019-05-20T13:49:06.945Z,2.77
2019-05-20T13:53:08.970Z,2.77
2019-05-20T13:57:13.084Z,2.80
2019-05-20T14:01:14.333Z,2.70
2019-05-20T14:05:16.212Z,2.80
2019-05-20T14:09:18.098Z,2.87
2019-05-20T14:13:20.116Z,3.30
2019-05-20T14:17:22.038Z,3.00
2019-05-20T14:21:23.777Z,3.10
2019-05-20T14:25:28.653Z,2.90
2019-05-20T14:29:29.564Z,3.13
2019-05-20T14:33:32.278Z,3.00
2019-05-20T14:37:34.395Z,3.30
2019-05-20T14:41:36.213Z,2.40
2019-05-20T14:45:37.987Z,2.87
2019-05-20T14:49:39.811Z,2.50
2019-05-20T14:53:41.664Z,3.33
2019-05-20T14:57:43.596Z,3.53
2019-05-20T15:01:45.450Z,3.40
2019-05-20T15:05:47.330Z,2.70
2019-05-20T15:09:49.396Z,2.73
2019-05-20T15:13:51.640Z,3.03
2019-05-20T15:17:53.965Z,2.70
2019-05-20T15:21:56.272Z,3.37
2019-05-20T15:25:58.316Z,2.43
2019-05-20T15:30:00.447Z,2.53
2019-05-20T15:34:02.867Z,2.77
2019-05-20T15:38:05.109Z,2.47
2019-05-20T15:42:07.262Z,2.70
2019-05-20T15:46:09.443Z,2.57
2019-05-20T15:50:11.748Z,2.77
2019-05-20T15:54:13.921Z,3.27
2019-05-20T15:58:17.213Z,3.00
2019-05-20T16:02:21.162Z,3.00
2019-05-20T16:06:24.923Z,3.13
2019-05-20T16:10:27.401Z,2.70
2019-05-20T16:14:29.460Z,2.77
2019-05-20T16:18:31.804Z,3.23
2019-05-20T16:22:34.144Z,2.93
2019-05-20T16:26:36.243Z,2.67
2019-05-20T16:30:38.669Z,2.83
2019-05-20T16:34:41.948Z,3.17
2019-05-20T16:38:44.290Z,3.17
2019-05-20T16:42:46.815Z,2.57
2019-05-20T16:46:49.059Z,3.23
2019-05-20T16:50:52.168Z,2.93
2019-05-20T16:54:54.656Z,3.07
2019-05-20T16:58:56.862Z,2.80
2019-05-20T17:02:59.195Z,3.43
2019-05-20T17:07:01.514Z,3.13
2019-05-20T17:11:05.720Z,3.23
2019-05-20T17:15:08.635Z,3.17
2019-05-20T17:19:10.600Z,3.00
2019-05-20T17:23:12.694Z,2.60
2019-05-20T17:27:14.812Z,2.70
2019-05-20T17:31:21.031Z,2.93
2019-05-20T17:35:40.403Z,3.00
2019-05-20T17:39:42.702Z,3.63
2019-05-20T17:43:44.868Z,3.47
2019-05-20T17:47:47.225Z,2.90
2019-05-20T17:51:50.343Z,2.83
2019-05-20T17:55:52.884Z,3.27
2019-05-20T17:59:55.962Z,2.90
2019-05-20T18:03:58.254Z,3.50
2019-05-20T18:08:00.500Z,3.17
2019-05-20T18:12:02.614Z,3.83
2019-05-20T18:16:05.584Z,3.60
2019-05-20T18:20:07.898Z,3.60
2019-05-20T18:24:10.016Z,3.37
2019-05-20T18:28:12.087Z,3.80
2019-05-20T18:32:14.349Z,3.33
2019-05-20T18:36:24.085Z,3.20
2019-05-20T18:40:26.835Z,3.20
2019-05-20T18:44:29.038Z,3.67
2019-05-20T18:48:31.299Z,3.33
2019-05-20T18:52:33.303Z,3.67
2019-05-20T18:56:35.465Z,4.07
2019-05-20T19:00:37.552Z,3.40
2019-05-20T19:04:40.010Z,3.30
2019-05-20T19:08:42.039Z,3.37
2019-05-20T19:12:44.055Z,3.90
2019-05-20T19:16:46.358Z,3.80
2019-05-20T19:20:48.539Z,3.33
2019-05-20T19:24:50.833Z,3.73
2019-05-20T19:28:53.072Z,3.77
2019-05-20T19:32:55.287Z,3.33
2019-05-20T19:36:57.695Z,3.30
2019-05-20T19:40:59.876Z,3.57
2019-05-20T19:45:03.149Z,3.33
2019-05-20T19:49:06.999Z,3.67
2019-05-20T19:53:09.269Z,3.70
2019-05-20T19:57:11.311Z,3.77
2019-05-20T20:01:13.287Z,3.90
2019-05-20T20:05:15.768Z,4.10
2019-05-20T20:09:18.142Z,3.67
2019-05-20T20:13:23.442Z,3.90
2019-05-20T20:17:25.515Z,4.40
2019-05-20T20:21:27.587Z,3.87
2019-05-20T20:25:29.841Z,3.93
2019-05-20T20:29:31.774Z,4.00
2019-05-20T20:33:33.785Z,4.07
2019-05-20T20:37:35.999Z,4.17
2019-05-20T20:41:38.063Z,3.80
2019-05-20T20:45:40.289Z,4.13
2019-05-20T20:49:42.608Z,4.17
2019-05-20T20:53:44.929Z,4.20
2019-05-20T20:57:47.148Z,4.20
2019-05-20T21:01:49.622Z,4.50
2019-05-20T21:05:52.015Z,4.17
2019-05-20T21:09:54.151Z,4.40
2019-05-20T21:13:56.315Z,4.80
2019-05-20T21:17:58.581Z,4.67
2019-05-20T21:22:01.028Z,4.00
2019-05-20T21:26:03.378Z,4.13
2019-05-20T21:30:05.867Z,4.50
2019-05-20T21:34:08.243Z,4.53
2019-05-20T21:38:10.523Z,4.27
2019-05-20T21:42:12.803Z,4.30
2019-05-20T21:46:15.171Z,4.70
2019-05-20T21:50:17.482Z,4.53
2019-05-20T21:54:19.828Z,4.40
2019-05-20T21:58:22.229Z,4.13
2019-05-20T22:02:26.589Z,5.00
2019-05-20T22:06:28.324Z,4.27
2019-05-20T22:10:30.255Z,5.03
2019-05-20T22:14:32.476Z,4.30
2019-05-20T22:18:34.692Z,4.53
2019-05-20T22:22:54.906Z,4.73
2019-05-20T22:26:57.010Z,4.77
2019-05-20T22:30:59.107Z,4.80
2019-05-20T22:35:01.285Z,4.90
2019-05-20T22:39:06.287Z,4.73
2019-05-20T22:43:08.416Z,5.00
2019-05-20T22:47:10.654Z,4.57
2019-05-20T22:51:12.651Z,5.20
2019-05-20T22:55:14.973Z,4.87
2019-05-20T22:59:16.988Z,5.40
2019-05-20T23:03:19.153Z,5.23
2019-05-20T23:07:21.398Z,5.60
2019-05-20T23:11:23.671Z,4.83
2019-05-20T23:15:25.752Z,4.53
2019-05-20T23:19:28.917Z,5.37
2019-05-20T23:23:31.002Z,4.90
2019-05-20T23:27:33.123Z,5.33
2019-05-20T23:31:35.266Z,4.87
2019-05-20T23:35:37.466Z,4.97
2019-05-20T23:39:39.435Z,4.87
2019-05-20T23:43:41.734Z,4.60
2019-05-20T23:47:43.878Z,4.83
2019-05-20T23:51:45.659Z,4.77
2019-05-20T23:55:47.588Z,5.00
2019-05-20T23:59:49.767Z,4.93
